Qway, New Mexico
Current Conditions -  °F | °C
As of 9:53 AM on Friday 28 Nov 2014 (Local Time) from KTCC Reporting Station
Clear Clear  
Wind Chill: 68°   Ceiling: Unl
Heat Index: 68°   Visibility: 10mi
Dew Point: 14°   Wind: 23mph
Humidity: 12%   Direction: 280°W
Pressure: 30.06"   Gusts: NA
Location:  34.9519°N, 103.772°W
Report Text: KTCC 281653Z AUTO 28020KT 10SM CLR 20/M10 A3006 RMK AO2 PK WND 27029/1637 SLP144 T02001100
Loading
Personal Weather Stations






























Interactive Weather Map New forecast layout! Learn more

10-Day Weather Forecast

Advertisements
Track Severe Weather on mobile